New Delhi, India
Current Conditions -  °F | °C
As of 10:30 PM on Friday 28 Nov 2014 (Local Time) from VIDP Reporting Station
Smoke Smoke  
Wind Chill: 73°   Ceiling: Unl
Heat Index: 73°   Visibility: 0.87mi
Dew Point: 50°   Wind: 5mph
Humidity: 44%   Direction: 190°S
Pressure: 29.91"   Gusts: NA
Location:  28.61°N, 77.21°E
Report Text: VIDP 281730Z 19004KT 1400 R28/P2000 R29/P2000 FU SCT100 23/10 Q1013 BECMG 1500
Loading
Personal Weather Stations






























Interactive Weather Map New forecast layout! Learn more

10-Day Weather Forecast

Advertisements
Track Severe Weather on mobile